Time;durP1;ratioP1;P1;durP2;ratioP2;P2;SDS_P1;SDS_P2;PMS_P1;PMS_P2;Temp;Humidity;BMP_temperature;BMP_pressure;BME280_temperature;BME280_humidity;BME280_pressure;Samples;Min_cycle;Max_cycle;Signal;HPM_P1;HPM_P2
2021/10/19 00:01:08;;;;;;;9.55;4.32;;;14.10;99.90;;;;;;20573195;28;20031;-82
2021/10/19 00:11:09;;;;;;;8.25;3.70;;;14.20;99.90;;;;;;20614315;28;20052;-82
2021/10/19 00:21:10;;;;;;;8.63;4.32;;;14.20;99.90;;;;;;20631566;28;20033;-81
2021/10/19 00:31:11;;;;;;;9.93;4.47;;;14.20;99.90;;;;;;20662566;28;20047;-82
2021/10/19 00:41:12;;;;;;;10.00;3.78;;;14.30;99.90;;;;;;20657172;28;20056;-82
2021/10/19 00:51:15;;;;;;;10.38;4.43;;;14.20;99.90;;;;;;20636756;28;20125;-79
2021/10/19 01:01:18;;;;;;;8.30;3.80;;;14.30;99.90;;;;;;20688760;28;20470;-81
2021/10/19 01:11:19;;;;;;;10.02;3.63;;;14.30;99.90;;;;;;20611352;28;20400;-81
2021/10/19 01:21:21;;;;;;;7.53;4.00;;;14.30;99.90;;;;;;20630564;28;20034;-81
2021/10/19 01:31:22;;;;;;;8.45;4.28;;;14.20;99.90;;;;;;20574265;28;20716;-81
2021/10/19 01:41:23;;;;;;;11.38;4.93;;;14.00;99.90;;;;;;20631161;28;20033;-82
2021/10/19 01:51:25;;;;;;;12.25;5.32;;;13.90;99.90;;;;;;20655935;28;20053;-82
2021/10/19 02:01:26;;;;;;;8.63;4.13;;;13.90;99.90;;;;;;20650449;28;20460;-81
2021/10/19 02:11:27;;;;;;;9.45;4.82;;;13.90;99.90;;;;;;20652179;28;20046;-81
2021/10/19 02:21:28;;;;;;;11.90;4.38;;;14.00;99.90;;;;;;20643102;28;20043;-81
2021/10/19 02:31:29;;;;;;;11.95;4.28;;;14.10;99.90;;;;;;20657856;28;20046;-81
2021/10/19 02:41:30;;;;;;;10.80;4.60;;;14.20;99.90;;;;;;20673064;28;20036;-81
2021/10/19 02:51:32;;;;;;;11.10;5.18;;;14.30;99.90;;;;;;20635884;28;20092;-82
2021/10/19 03:01:33;;;;;;;12.93;5.50;;;14.30;99.90;;;;;;20638918;28;20030;-82
2021/10/19 03:11:34;;;;;;;10.45;4.82;;;14.30;99.90;;;;;;20663805;28;20046;-82
2021/10/19 03:21:35;;;;;;;9.50;4.18;;;14.40;99.90;;;;;;20668545;28;20037;-82
2021/10/19 03:31:37;;;;;;;12.88;5.28;;;14.40;99.90;;;;;;20644022;28;20057;-81
2021/10/19 03:41:39;;;;;;;12.00;5.75;;;14.50;99.90;;;;;;20650128;28;20042;-81
2021/10/19 03:51:40;;;;;;;11.45;4.63;;;14.50;99.90;;;;;;20650709;28;20057;-82
2021/10/19 04:01:41;;;;;;;8.93;4.72;;;14.50;99.90;;;;;;20638395;28;20493;-82
2021/10/19 04:11:42;;;;;;;12.15;5.03;;;14.60;99.90;;;;;;20636141;28;20064;-82
2021/10/19 04:21:47;;;;;;;8.57;4.57;;;14.70;99.90;;;;;;20593492;28;20034;-82
2021/10/19 04:31:48;;;;;;;10.07;4.47;;;14.60;99.90;;;;;;20606711;28;20398;-82
2021/10/19 04:41:49;;;;;;;10.13;4.55;;;14.70;99.90;;;;;;20637885;28;20401;-81
2021/10/19 04:51:50;;;;;;;10.20;4.53;;;14.70;99.90;;;;;;20638571;28;20133;-83
2021/10/19 05:01:51;;;;;;;7.90;3.80;;;14.80;99.90;;;;;;20654543;28;20057;-82
2021/10/19 05:11:53;;;;;;;11.38;4.25;;;14.70;99.90;;;;;;20677083;28;20038;-82
2021/10/19 05:21:54;;;;;;;8.93;4.10;;;14.90;99.90;;;;;;20639700;28;20085;-83
2021/10/19 05:31:55;;;;;;;8.10;4.10;;;14.80;99.90;;;;;;20666905;28;20407;-83
2021/10/19 05:41:56;;;;;;;8.77;3.83;;;14.90;99.90;;;;;;20646075;28;20052;-82
2021/10/19 05:51:57;;;;;;;7.70;3.53;;;14.90;99.90;;;;;;20622203;28;20042;-81
2021/10/19 06:01:59;;;;;;;7.32;3.35;;;14.90;99.90;;;;;;20598471;28;20540;-82
2021/10/19 06:12:01;;;;;;;9.15;3.65;;;15.00;99.90;;;;;;20639753;28;20054;-82
2021/10/19 06:22:02;;;;;;;11.52;4.72;;;15.00;99.90;;;;;;20606694;28;20038;-82
2021/10/19 06:32:03;;;;;;;8.82;3.42;;;15.00;99.90;;;;;;20622840;28;20403;-83
2021/10/19 06:42:05;;;;;;;12.63;5.20;;;15.10;99.90;;;;;;20686170;28;20065;-82
2021/10/19 06:52:06;;;;;;;14.02;5.32;;;15.10;99.90;;;;;;20605233;28;20050;-83
2021/10/19 07:02:07;;;;;;;13.63;4.75;;;15.20;99.90;;;;;;20663107;28;20586;-83
2021/10/19 07:12:08;;;;;;;9.52;4.05;;;15.20;99.90;;;;;;20599504;28;20050;-81
2021/10/19 07:22:10;;;;;;;16.00;4.47;;;15.20;99.90;;;;;;20633695;28;20039;-83
2021/10/19 07:32:11;;;;;;;11.50;4.13;;;15.30;99.90;;;;;;20572544;28;20057;-82
2021/10/19 07:42:12;;;;;;;14.35;5.38;;;15.40;99.90;;;;;;20606163;28;20034;-83
2021/10/19 07:52:13;;;;;;;10.77;4.25;;;15.40;99.90;;;;;;20596001;28;20034;-83
2021/10/19 08:02:14;;;;;;;13.45;5.05;;;15.40;99.90;;;;;;20573415;28;20046;-84
2021/10/19 08:12:16;;;;;;;12.73;5.63;;;15.50;99.90;;;;;;20685500;28;20045;-82
2021/10/19 08:22:17;;;;;;;10.05;4.22;;;15.60;99.90;;;;;;20719850;28;20046;-82
2021/10/19 08:32:19;;;;;;;8.73;4.13;;;15.70;99.90;;;;;;20632072;28;20050;-82
2021/10/19 08:42:20;;;;;;;9.85;4.60;;;15.80;99.90;;;;;;20648681;28;20048;-82
2021/10/19 08:52:21;;;;;;;9.68;3.88;;;15.80;99.90;;;;;;20666439;28;20750;-83
2021/10/19 09:02:47;;;;;;;6.63;2.60;;;15.90;99.90;;;;;;20670428;28;20038;-83
2021/10/19 09:12:57;;;;;;;8.75;3.75;;;16.00;99.90;;;;;;20648307;28;20085;-83
2021/10/19 09:23:01;;;;;;;7.40;3.13;;;16.20;99.90;;;;;;20648791;28;20413;-83
2021/10/19 09:33:12;;;;;;;6.93;2.95;;;16.30;99.90;;;;;;20658364;28;20136;-83
2021/10/19 09:43:19;;;;;;;10.27;3.22;;;16.40;99.90;;;;;;20678931;28;20694;-83
2021/10/19 09:53:23;;;;;;;8.50;3.75;;;16.40;99.90;;;;;;20657152;28;20406;-83
2021/10/19 10:03:24;;;;;;;8.93;3.72;;;16.50;99.90;;;;;;20660150;28;20041;-83
2021/10/19 10:13:25;;;;;;;10.52;4.13;;;16.70;99.90;;;;;;20649583;28;20045;-82
2021/10/19 10:23:29;;;;;;;11.50;4.88;;;16.80;99.90;;;;;;20665877;28;20061;-83
2021/10/19 10:34:01;;;;;;;9.65;3.50;;;16.80;99.90;;;;;;20666650;28;20060;-83
2021/10/19 10:44:02;;;;;;;7.25;3.10;;;17.00;99.90;;;;;;20630316;28;20413;-83
2021/10/19 10:54:04;;;;;;;11.27;3.80;;;17.20;99.90;;;;;;20624997;28;20518;-83
2021/10/19 11:04:11;;;;;;;7.90;3.17;;;17.30;99.90;;;;;;20614791;28;20054;-82
2021/10/19 11:14:17;;;;;;;9.82;4.15;;;17.30;99.90;;;;;;20645649;28;20042;-83
2021/10/19 11:24:24;;;;;;;10.13;3.80;;;17.30;99.90;;;;;;20647285;28;20045;-84
2021/10/19 11:34:25;;;;;;;9.48;3.42;;;17.40;99.90;;;;;;20616021;28;20076;-83
2021/10/19 11:44:31;;;;;;;11.48;3.03;;;17.40;99.90;;;;;;20631956;28;20150;-84
2021/10/19 11:54:35;;;;;;;6.97;3.00;;;17.50;99.90;;;;;;20595474;28;20050;-84
2021/10/19 12:04:44;;;;;;;8.00;2.97;;;17.60;99.90;;;;;;20619746;28;20045;-84
2021/10/19 12:14:46;;;;;;;8.48;3.53;;;17.60;99.90;;;;;;20667484;28;20508;-84
2021/10/19 12:24:47;;;;;;;15.52;4.55;;;17.60;99.90;;;;;;20632047;28;20058;-82
2021/10/19 12:34:49;;;;;;;13.93;5.40;;;17.60;99.90;;;;;;20643961;28;20033;-84
2021/10/19 12:44:50;;;;;;;14.00;5.95;;;17.60;99.90;;;;;;20667348;28;20224;-83
2021/10/19 12:54:52;;;;;;;14.30;6.03;;;17.60;99.90;;;;;;20673380;28;20585;-86
2021/10/19 13:04:54;;;;;;;13.48;6.32;;;17.90;99.90;;;;;;20653339;28;20501;-81
2021/10/19 13:14:56;;;;;;;9.98;4.57;;;18.10;99.90;;;;;;20627095;28;20070;-83
2021/10/19 13:25:00;;;;;;;13.25;4.95;;;18.30;99.90;;;;;;20586493;28;20160;-81
2021/10/19 13:35:01;;;;;;;8.85;4.32;;;19.40;99.90;;;;;;20647699;28;20054;-81
2021/10/19 13:45:03;;;;;;;12.88;4.50;;;19.50;99.90;;;;;;20645205;28;22113;-81
2021/10/19 13:55:10;;;;;;;10.93;4.50;;;19.20;99.90;;;;;;20660422;28;20047;-81
2021/10/19 14:05:11;;;;;;;;;;;19.60;99.90;;;;;;20701995;28;20058;-82
2021/10/19 14:15:13;;;;;;;10.48;4.72;;;19.00;99.90;;;;;;20648593;28;19936;-81
2021/10/19 14:25:16;;;;;;;13.73;4.53;;;19.00;99.90;;;;;;20645882;28;20188;-80
2021/10/19 14:35:17;;;;;;;10.32;5.00;;;19.60;99.90;;;;;;20673965;28;20042;-80
2021/10/19 14:45:18;;;;;;;11.00;4.38;;;19.80;99.90;;;;;;20642161;28;20050;-80
2021/10/19 14:55:19;;;;;;;9.02;4.43;;;19.40;99.90;;;;;;20613345;28;20055;-80
2021/10/19 15:05:26;;;;;;;10.73;4.50;;;19.30;99.90;;;;;;20657325;28;20050;-81
2021/10/19 15:15:27;;;;;;;10.57;5.03;;;19.30;99.90;;;;;;20657270;28;20041;-80
2021/10/19 15:25:28;;;;;;;10.75;4.30;;;19.20;99.90;;;;;;20615237;28;20052;-80
2021/10/19 15:35:30;;;;;;;11.27;5.78;;;18.90;99.90;;;;;;20631761;28;20065;-80
2021/10/19 15:45:31;;;;;;;11.48;5.00;;;18.70;99.90;;;;;;20588793;28;20046;-81
2021/10/19 15:55:32;;;;;;;13.50;4.97;;;18.50;99.90;;;;;;20634091;28;20046;-78
2021/10/19 16:05:34;;;;;;;13.32;5.18;;;18.50;99.90;;;;;;20603294;28;20695;-79
2021/10/19 16:15:35;;;;;;;13.05;4.53;;;18.40;99.90;;;;;;20571231;28;20050;-80
2021/10/19 16:25:36;;;;;;;11.65;4.60;;;18.40;99.90;;;;;;20606494;28;20565;-80
2021/10/19 16:35:37;;;;;;;9.68;4.53;;;18.20;99.90;;;;;;20609073;28;20050;-80
2021/10/19 16:45:40;;;;;;;10.00;3.85;;;18.10;99.90;;;;;;20560767;28;20045;-80
2021/10/19 16:55:41;;;;;;;9.60;4.15;;;17.90;99.90;;;;;;20606875;28;20040;-81
2021/10/19 17:05:42;;;;;;;8.75;3.97;;;17.90;99.90;;;;;;20644077;28;20062;-80
2021/10/19 17:15:43;;;;;;;9.82;4.03;;;17.80;99.90;;;;;;20620471;28;20035;-84
2021/10/19 17:25:44;;;;;;;10.63;4.00;;;17.70;99.90;;;;;;20638565;28;20054;-84
2021/10/19 17:35:46;;;;;;;7.95;4.03;;;17.70;99.90;;;;;;20608218;28;20418;-83
2021/10/19 17:45:47;;;;;;;7.28;2.97;;;17.50;99.90;;;;;;20648779;28;20604;-82
2021/10/19 17:55:48;;;;;;;7.60;3.40;;;17.50;99.90;;;;;;20612299;28;20038;-82
2021/10/19 18:05:49;;;;;;;12.98;3.65;;;17.60;99.90;;;;;;20530728;28;21053;-83
2021/10/19 18:15:50;;;;;;;8.73;3.25;;;17.50;99.90;;;;;;20612237;28;20055;-82
2021/10/19 18:25:53;;;;;;;10.35;3.33;;;17.40;99.90;;;;;;20627099;28;20353;-82
2021/10/19 18:35:56;;;;;;;7.82;3.45;;;17.40;99.90;;;;;;20606575;28;20034;-83
2021/10/19 18:45:58;;;;;;;11.50;4.55;;;17.30;99.90;;;;;;20596397;28;20039;-83
2021/10/19 18:55:59;;;;;;;8.50;3.70;;;17.30;99.90;;;;;;20619227;28;20153;-82
2021/10/19 19:06:00;;;;;;;10.57;4.05;;;17.30;99.90;;;;;;20646122;28;20521;-81
2021/10/19 19:16:02;;;;;;;9.15;3.60;;;17.20;99.90;;;;;;20631536;28;20038;-82
2021/10/19 19:26:03;;;;;;;9.38;3.35;;;17.20;99.90;;;;;;20553334;28;20042;-82
2021/10/19 19:36:06;;;;;;;10.93;3.75;;;17.20;99.90;;;;;;20635705;28;20056;-82
2021/10/19 19:46:11;;;;;;;8.75;2.95;;;17.20;99.90;;;;;;20608352;28;20038;-83
2021/10/19 19:56:12;;;;;;;9.38;3.55;;;17.20;99.90;;;;;;20687480;28;20374;-83
2021/10/19 20:06:13;;;;;;;9.27;3.63;;;17.10;99.90;;;;;;20644614;28;20049;-82
2021/10/19 20:16:17;;;;;;;9.43;4.00;;;17.10;99.90;;;;;;20623103;28;20537;-82
2021/10/19 20:26:18;;;;;;;8.23;3.38;;;17.00;99.90;;;;;;20655621;28;20065;-82
2021/10/19 20:36:19;;;;;;;9.65;3.83;;;17.00;99.90;;;;;;20645171;28;20505;-83
2021/10/19 20:46:20;;;;;;;12.93;4.75;;;16.90;99.90;;;;;;20647607;28;20042;-83
2021/10/19 20:56:25;;;;;;;10.48;4.22;;;16.80;99.90;;;;;;20601803;28;20376;-82
2021/10/19 21:06:27;;;;;;;11.57;4.00;;;16.80;99.90;;;;;;20580577;28;20526;-83
2021/10/19 21:16:28;;;;;;;9.70;3.95;;;16.70;99.90;;;;;;20565172;28;20053;-82
2021/10/19 21:26:29;;;;;;;8.35;3.65;;;16.70;99.90;;;;;;20661085;28;20053;-82
2021/10/19 21:36:31;;;;;;;12.63;4.45;;;16.60;99.90;;;;;;20653077;28;20051;-82
2021/10/19 21:46:34;;;;;;;7.00;3.30;;;16.50;99.90;;;;;;20754792;28;20046;-81
2021/10/19 21:56:35;;;;;;;10.07;4.22;;;16.40;99.90;;;;;;20663607;28;20058;-82
2021/10/19 22:06:36;;;;;;;7.30;3.30;;;16.40;99.90;;;;;;20612042;28;20046;-83
2021/10/19 22:16:38;;;;;;;7.25;3.25;;;16.30;99.90;;;;;;20651543;28;20817;-82
2021/10/19 22:26:39;;;;;;;8.38;3.88;;;16.20;99.90;;;;;;20641039;28;20042;-82
2021/10/19 22:36:40;;;;;;;7.40;3.33;;;16.20;99.90;;;;;;20630110;28;20042;-82
2021/10/19 22:46:46;;;;;;;19.65;4.47;;;16.10;99.90;;;;;;20648039;28;20109;-83
2021/10/19 22:56:47;;;;;;;8.65;3.17;;;16.10;99.90;;;;;;20634600;28;20056;-82
2021/10/19 23:06:48;;;;;;;7.07;3.17;;;16.00;99.90;;;;;;20651858;28;20052;-82
2021/10/19 23:16:49;;;;;;;6.47;2.92;;;16.00;99.90;;;;;;20657395;28;20048;-82
2021/10/19 23:26:52;;;;;;;6.88;3.10;;;16.00;99.90;;;;;;20620910;28;20061;-82
2021/10/19 23:36:54;;;;;;;6.93;3.50;;;15.90;99.90;;;;;;20637248;28;20048;-82
2021/10/19 23:46:55;;;;;;;7.28;3.45;;;15.70;99.90;;;;;;20669521;28;20050;-81
2021/10/19 23:56:56;;;;;;;4.25;2.50;;;15.70;99.90;;;;;;20650600;28;20035;-82
